Time;durP1;ratioP1;P1;durP2;ratioP2;P2;SDS_P1;SDS_P2;PMS_P1;PMS_P2;Temp;Humidity;BMP_temperature;BMP_pressure;BME280_temperature;BME280_humidity;BME280_pressure;Samples;Min_cycle;Max_cycle;Signal;HPM_P1;HPM_P2
2023/09/09 00:01:35;;;;;;;0.10;0.10;;;;;;;-145.06;100.00;39923.28;10424083;28;20032;-66
2023/09/09 00:06:35;;;;;;;0.10;0.10;;;;;;;-145.06;100.00;39965.66;10430338;28;20071;-66
2023/09/09 00:11:36;;;;;;;0.00;0.00;;;;;;;-145.06;100.00;39969.69;10424086;28;20024;-66
2023/09/09 00:16:36;;;;;;;0.10;0.10;;;;;;;-145.06;100.00;39973.72;10418435;28;20017;-66
2023/09/09 00:21:37;;;;;;;0.10;0.10;;;;;;;-145.06;100.00;39973.72;10404451;28;21066;-66
2023/09/09 00:26:37;;;;;;;0.10;0.10;;;;;;;-145.06;100.00;39951.53;10420626;28;20077;-66
2023/09/09 00:31:37;;;;;;;0.10;0.10;;;;;;;-145.06;100.00;39999.97;10438163;28;20044;-66
2023/09/09 00:36:38;;;;;;;0.10;0.10;;;;;;;-145.06;100.00;39959.59;10432915;28;20107;-66
2023/09/09 00:41:38;;;;;;;0.10;0.10;;;;;;;-145.06;100.00;39961.63;10420163;28;20037;-66
2023/09/09 00:46:39;;;;;;;0.10;0.10;;;;;;;-145.06;100.00;39933.38;10411589;28;20017;-66
2023/09/09 00:51:44;;;;;;;0.10;0.10;;;;;;;-145.06;100.00;39979.78;10434897;28;20071;-66
2023/09/09 00:56:44;;;;;;;0.03;0.03;;;;;;;-145.06;100.00;40004.00;10430672;28;20111;-66
2023/09/09 01:01:45;;;;;;;0.03;0.03;;;;;;;-145.06;100.00;39997.94;10428164;28;20513;-66
2023/09/09 01:06:45;;;;;;;0.10;0.10;;;;;;;-145.06;100.00;39959.59;10422893;28;20009;-66
2023/09/09 01:11:46;;;;;;;0.10;0.10;;;;;;;-145.06;100.00;40001.97;10436981;28;20024;-66
2023/09/09 01:16:50;;;;;;;0.10;0.10;;;;;;;-145.06;100.00;40018.13;10424256;28;20446;-66
2023/09/09 01:21:54;;;;;;;0.10;0.10;;;;;;;-145.06;100.00;40016.09;10433083;28;20067;-66
2023/09/09 01:26:54;;;;;;;0.10;0.10;;;;;;;-145.06;100.00;40040.31;10431068;28;20478;-66
2023/09/09 01:31:55;;;;;;;0.00;0.00;;;;;;;-145.06;100.00;40052.44;10431651;28;20087;-66
2023/09/09 01:36:55;;;;;;;0.10;0.10;;;;;;;-145.06;100.00;40044.34;10431558;28;20343;-66
2023/09/09 01:41:55;;;;;;;0.10;0.10;;;;;;;-145.06;100.00;40044.34;10407441;28;20431;-66
2023/09/09 01:46:56;;;;;;;0.10;0.10;;;;;;;-145.06;100.00;40028.22;10418421;28;20048;-66
2023/09/09 01:51:56;;;;;;;0.10;0.10;;;;;;;-145.06;100.00;40064.53;10422448;28;20037;-66
2023/09/09 01:56:56;;;;;;;0.10;0.10;;;;;;;-145.06;100.00;40078.66;10428533;28;20017;-66
2023/09/09 02:01:57;;;;;;;0.10;0.10;;;;;;;-145.06;100.00;40062.53;10412579;28;20462;-67
2023/09/09 02:06:57;;;;;;;0.10;0.10;;;;;;;-145.06;100.00;40064.53;10433142;28;20706;-66
2023/09/09 02:11:57;;;;;;;0.10;0.10;;;;;;;-145.06;100.00;40088.75;10430227;28;20520;-66
2023/09/09 02:16:58;;;;;;;0.10;0.10;;;;;;;-145.06;100.00;40086.72;10424523;28;20058;-66
2023/09/09 02:21:58;;;;;;;0.10;0.10;;;;;;;-145.06;100.00;40060.50;10431788;28;20029;-66
2023/09/09 02:26:59;;;;;;;0.10;0.10;;;;;;;-145.06;100.00;40062.53;10427005;28;20021;-66
2023/09/09 02:31:59;;;;;;;0.10;0.10;;;;;;;-145.06;100.00;40088.75;10423924;28;20036;-66
2023/09/09 02:37:17;;;;;;;0.10;0.10;;;;;;;-145.06;100.00;40098.84;10429869;28;20040;-66
2023/09/09 02:42:22;;;;;;;0.10;0.10;;;;;;;-145.06;100.00;40115.00;10425781;28;20401;-66
2023/09/09 02:47:23;;;;;;;0.10;0.10;;;;;;;-145.06;100.00;40086.72;10424039;28;20021;-66
2023/09/09 02:52:23;;;;;;;0.10;0.10;;;;;;;-145.06;100.00;40078.66;10423058;28;20520;-66
2023/09/09 02:57:23;;;;;;;0.10;0.10;;;;;;;-145.06;100.00;40123.06;10424598;28;20104;-66
2023/09/09 03:02:24;;;;;;;0.10;0.10;;;;;;;-145.06;100.00;40117.00;10417912;28;20025;-66
2023/09/09 03:07:24;;;;;;;0.10;0.10;;;;;;;-145.06;100.00;40119.03;10424421;28;20028;-66
2023/09/09 03:12:24;;;;;;;0.10;0.10;;;;;;;-145.06;100.00;40102.88;10415338;28;20287;-66
2023/09/09 03:17:29;;;;;;;0.00;0.00;;;;;;;-145.06;100.00;40119.03;10417234;28;20021;-65
2023/09/09 03:22:30;;;;;;;0.10;0.10;;;;;;;-145.06;100.00;40127.09;10429750;28;20725;-66
2023/09/09 03:27:30;;;;;;;0.10;0.10;;;;;;;-145.06;100.00;40112.97;10431148;28;20047;-66
2023/09/09 03:32:31;;;;;;;0.20;0.20;;;;;;;-145.06;100.00;40141.22;10429586;28;20029;-66
2023/09/09 03:37:31;;;;;;;0.10;0.10;;;;;;;-145.06;100.00;40112.97;10421826;28;20074;-66
2023/09/09 03:42:33;;;;;;;0.10;0.10;;;;;;;-145.06;100.00;40147.28;10428599;28;20021;-67
2023/09/09 03:47:34;;;;;;;0.10;0.10;;;;;;;-145.06;100.00;40163.41;10422511;28;20021;-66
2023/09/09 03:52:34;;;;;;;0.10;0.10;;;;;;;-145.06;100.00;40102.88;10422812;28;20074;-65
2023/09/09 03:57:35;;;;;;;0.10;0.10;;;;;;;-145.06;100.00;40145.25;10412938;28;20013;-66
2023/09/09 04:02:35;;;;;;;0.10;0.10;;;;;;;-145.06;100.00;40175.53;10437568;28;20059;-66
2023/09/09 04:07:36;;;;;;;0.10;0.10;;;;;;;-145.06;100.00;40145.25;10421279;28;20340;-66
2023/09/09 04:12:36;;;;;;;0.10;0.10;;;;;;;-145.06;100.00;40155.34;10418669;28;20501;-66
2023/09/09 04:17:38;;;;;;;0.10;0.10;;;;;;;-145.06;100.00;40151.31;10420238;28;20540;-66
2023/09/09 04:22:39;;;;;;;0.10;0.10;;;;;;;-145.06;100.00;40153.34;10420591;28;20029;-66
2023/09/09 04:27:39;;;;;;;0.10;0.10;;;;;;;-145.06;100.00;40189.66;10429700;28;20013;-66
2023/09/09 04:32:39;;;;;;;0.10;0.10;;;;;;;-145.06;100.00;40108.94;10418706;28;20354;-66
2023/09/09 04:37:39;;;;;;;0.10;0.10;;;;;;;-145.06;100.00;40169.47;10425348;28;20035;-65
2023/09/09 04:42:40;;;;;;;0.00;0.00;;;;;;;-145.06;100.00;40171.50;10435083;28;20398;-65
2023/09/09 04:47:40;;;;;;;0.10;0.10;;;;;;;-145.06;100.00;40119.03;10433181;28;20033;-67
2023/09/09 04:52:40;;;;;;;0.00;0.00;;;;;;;-145.06;100.00;40036.28;10438231;28;20078;-67
2023/09/09 04:57:41;;;;;;;0.10;0.10;;;;;;;-145.06;100.00;40042.34;10441937;28;20021;-66
2023/09/09 05:02:41;;;;;;;0.10;0.10;;;;;;;-145.06;100.00;39951.53;10431894;28;20025;-66
2023/09/09 05:07:41;;;;;;;0.10;0.10;;;;;;;-145.06;100.00;39876.84;10438483;28;20098;-67
2023/09/09 05:12:42;;;;;;;0.10;0.10;;;;;;;-145.06;100.00;39842.56;10434620;28;20384;-67
2023/09/09 05:17:42;;;;;;;0.10;0.10;;;;;;;-145.06;100.00;39727.53;10412109;28;20080;-67
2023/09/09 05:22:42;;;;;;;0.10;0.10;;;;;;;-145.06;100.00;39622.59;10420187;28;20041;-67
2023/09/09 05:27:43;;;;;;;0.10;0.10;;;;;;;-145.06;95.15;39485.41;10421742;28;20016;-67
2023/09/09 05:32:44;;;;;;;0.00;0.00;;;;;;;-145.06;88.53;39271.50;10412406;28;20099;-67
2023/09/09 05:37:45;;;;;;;0.10;0.10;;;;;;;-145.06;84.89;39180.72;10424119;28;20013;-67
2023/09/09 05:42:45;;;;;;;0.00;0.00;;;;;;;-145.06;75.91;38978.97;10439180;28;20075;-67
2023/09/09 05:47:46;;;;;;;0.00;0.00;;;;;;;-145.06;71.57;38799.41;10434234;28;20009;-67
2023/09/09 05:52:46;;;;;;;0.00;0.00;;;;;;;-145.06;70.23;38724.75;10405184;28;20406;-67
2023/09/09 05:57:46;;;;;;;0.00;0.00;;;;;;;-145.06;66.63;38523.03;10418706;28;20021;-67
2023/09/09 06:02:46;;;;;;;0.00;0.00;;;;;;;-145.06;63.97;38339.47;10437605;28;20390;-67
2023/09/09 06:07:47;;;;;;;0.10;0.10;;;;;;;-145.06;62.82;38168.00;10428745;28;20017;-67
2023/09/09 06:12:47;;;;;;;0.10;0.10;;;;;;;-145.06;58.85;38012.69;10425718;28;20035;-67
2023/09/09 06:17:47;;;;;;;0.00;0.00;;;;;;;-145.06;56.66;37871.50;10428153;28;20488;-67
2023/09/09 06:22:48;;;;;;;0.10;0.10;;;;;;;-145.06;55.33;37718.22;10405012;28;20481;-67
2023/09/09 06:27:48;;;;;;;0.00;0.00;;;;;;;-145.06;54.34;37571.00;10428047;28;20051;-67
2023/09/09 06:32:48;;;;;;;0.00;0.00;;;;;;;-145.06;52.95;37314.88;10427321;28;20031;-65
2023/09/09 06:37:49;;;;;;;0.10;0.10;;;;;;;-145.06;51.39;37095.06;10431312;28;20530;-67
2023/09/09 06:42:49;;;;;;;0.10;0.10;;;;;;;-145.06;51.57;36990.19;10418220;28;20391;-65
2023/09/09 06:47:49;;;;;;;0.10;0.10;;;;;;;-145.06;50.91;36887.34;10435354;28;20106;-65
2023/09/09 06:52:49;;;;;;;0.10;0.10;;;;;;;-145.06;50.02;36792.59;10411344;28;20374;-66
2023/09/09 06:57:50;;;;;;;0.10;0.10;;;;;;;-145.06;48.31;36580.88;10420595;28;20375;-66
2023/09/09 07:02:50;;;;;;;0.10;0.10;;;;;;;-145.06;46.93;36482.06;10449942;22;20414;-74
2023/09/09 07:07:50;;;;;;;;;;;;;;;-145.06;45.43;36461.91;10419578;28;20124;-70
2023/09/09 07:12:52;;;;;;;0.10;0.10;;;;;;;-145.06;43.88;36582.88;10424927;28;19913;-71
2023/09/09 07:17:54;;;;;;;0.10;0.10;;;;;;;-145.06;44.76;36847.03;10427971;28;20116;-70
2023/09/09 07:22:54;;;;;;;0.10;0.10;;;;;;;-145.06;45.88;37012.38;10424547;28;20493;-70
2023/09/09 07:27:55;;;;;;;0.10;0.10;;;;;;;-145.06;47.15;37062.78;10431187;28;20029;-70
2023/09/09 07:32:55;;;;;;;0.03;0.03;;;;;;;-145.06;47.02;36897.44;10431034;28;20272;-70
2023/09/09 07:37:55;;;;;;;0.10;0.10;;;;;;;-145.06;47.52;36941.78;10427269;28;20488;-70
2023/09/09 07:42:56;;;;;;;0.10;0.10;;;;;;;-145.06;46.40;36990.19;10435022;28;20064;-70
2023/09/09 07:47:56;;;;;;;0.10;0.10;;;;;;;-145.06;47.43;37262.44;10429802;28;20272;-71
2023/09/09 07:52:57;;;;;;;0.10;0.10;;;;;;;-145.06;48.99;37119.25;10429222;28;20036;-70
2023/09/09 07:57:57;;;;;;;0.00;0.00;;;;;;;-145.06;49.25;36857.09;10429591;28;20024;-71
2023/09/09 08:02:58;;;;;;;0.10;0.10;;;;;;;-145.06;47.02;36480.06;10431132;28;20044;-71
2023/09/09 08:07:59;;;;;;;0.10;0.10;;;;;;;-145.06;45.43;36431.66;10434808;28;20120;-70
2023/09/09 08:13:00;;;;;;;0.10;0.10;;;;;;;-145.06;46.24;36387.31;10440680;28;20029;-69
2023/09/09 08:18:00;;;;;;;0.10;0.10;;;;;;;-145.06;47.27;36373.19;10436096;28;20071;-70
2023/09/09 08:23:01;;;;;;;0.10;0.10;;;;;;;-145.06;45.36;36300.63;10423135;28;20033;-70
2023/09/09 08:28:03;;;;;;;0.00;0.00;;;;;;;-145.06;46.36;36421.59;10418126;28;20447;-70
2023/09/09 08:33:04;;;;;;;0.10;0.10;;;;;;;-145.06;45.74;36365.13;10437916;28;20017;-70
2023/09/09 08:38:04;;;;;;;0.10;0.10;;;;;;;-145.06;47.97;36248.19;10430013;28;20017;-69
2023/09/09 08:43:28;;;;;;;0.10;0.10;;;;;;;-145.06;46.94;36151.41;10417856;28;20036;-70
2023/09/09 08:48:32;;;;;;;0.10;0.10;;;;;;;-145.06;45.73;36213.91;10440209;28;20100;-69
2023/09/09 08:53:35;;;;;;;0.10;0.10;;;;;;;-145.06;46.87;36532.47;10429761;28;20052;-69
2023/09/09 08:58:35;;;;;;;0.00;0.00;;;;;;;-145.06;48.66;36484.09;10430660;28;20481;-69
2023/09/09 09:03:36;;;;;;;0.00;0.00;;;;;;;-145.06;47.93;36546.59;10439078;28;20064;-69
2023/09/09 09:08:37;;;;;;;0.00;0.00;;;;;;;-145.06;47.49;36691.75;10427032;28;20485;-69
2023/09/09 09:13:37;;;;;;;0.03;0.03;;;;;;;-145.06;51.86;36677.66;10429750;28;20029;-69
2023/09/09 09:18:37;;;;;;;0.00;0.00;;;;;;;-145.06;53.23;36679.66;10428014;28;20013;-69
2023/09/09 09:23:44;;;;;;;0.10;0.10;;;;;;;-145.06;53.53;36546.59;10423799;28;20048;-69
2023/09/09 09:28:45;;;;;;;0.00;0.00;;;;;;;-145.06;51.29;36800.66;10442735;28;20444;-69
2023/09/09 09:33:52;;;;;;;0.00;0.00;;;;;;;-145.06;53.83;36645.38;10451841;28;20188;-69
2023/09/09 09:38:53;;;;;;;0.10;0.10;;;;;;;-145.06;51.24;36691.75;10443730;28;20021;-70
2023/09/09 09:43:54;;;;;;;0.00;0.00;;;;;;;-145.06;53.21;36869.22;10435321;28;20188;-69
2023/09/09 09:48:54;;;;;;;0.10;0.10;;;;;;;-145.06;56.39;36905.50;10434744;28;20071;-69
2023/09/09 09:53:54;;;;;;;0.10;0.10;;;;;;;-145.06;55.42;36927.69;10436887;28;20025;-70
2023/09/09 09:58:56;;;;;;;0.10;0.10;;;;;;;-145.06;58.17;36865.16;10451369;28;20035;-70
2023/09/09 10:04:04;;;;;;;0.03;0.03;;;;;;;-145.06;54.09;36832.91;10430729;28;20040;-70
2023/09/09 10:09:30;;;;;;;0.10;0.10;;;;;;;-145.06;56.73;36923.66;10428136;28;20013;-69
2023/09/09 10:14:34;;;;;;;0.10;0.10;;;;;;;-145.06;61.29;36728.06;10436307;28;20080;-69
2023/09/09 10:19:36;;;;;;;0.00;0.00;;;;;;;-145.06;60.26;36580.88;10430343;28;20464;-69
2023/09/09 10:24:39;;;;;;;0.10;0.10;;;;;;;-145.06;58.67;36558.69;10435872;28;20025;-68
2023/09/09 10:29:41;;;;;;;0.00;0.00;;;;;;;-145.06;55.82;36443.75;10421220;28;20020;-69
2023/09/09 10:34:44;;;;;;;0.10;0.10;;;;;;;-145.06;56.33;36393.34;10418331;28;20481;-69
2023/09/09 10:39:49;;;;;;;0.03;0.03;;;;;;;-145.06;54.61;36526.44;10436039;28;20020;-69
2023/09/09 10:44:49;;;;;;;0.10;0.10;;;;;;;-145.06;57.23;36613.13;10434147;28;20026;-68
2023/09/09 10:50:04;;;;;;;0.10;0.10;;;;;;;-145.06;58.97;36482.06;10431012;28;20020;-68
2023/09/09 10:55:12;;;;;;;0.00;0.00;;;;;;;-145.06;56.94;36486.09;10435601;28;20100;-68
2023/09/09 11:00:36;;;;;;;0.10;0.10;;;;;;;-145.06;55.81;36463.94;10431999;28;20024;-69
2023/09/09 11:05:56;;;;;;;0.10;0.10;;;;;;;-145.06;56.76;36413.53;10424873;28;20037;-68
2023/09/09 11:11:31;;;;;;;0.05;0.05;;;;;;;-145.06;58.62;36361.09;10407378;28;20057;-68
2023/09/09 11:16:34;;;;;;;0.00;0.00;;;;;;;-145.06;54.72;36328.84;10436465;28;20121;-69
2023/09/09 11:21:52;;;;;;;0.03;0.03;;;;;;;-145.06;57.86;36290.53;10428329;28;20100;-68
2023/09/09 11:26:55;;;;;;;0.10;0.10;;;;;;;-145.06;56.19;36264.31;10425602;28;20045;-68
2023/09/09 11:31:56;;;;;;;0.10;0.10;;;;;;;-145.06;54.86;36308.69;10437016;28;20025;-68
2023/09/09 11:36:56;;;;;;;0.03;0.03;;;;;;;-145.06;54.79;36268.34;10414855;28;20028;-68
2023/09/09 11:41:56;;;;;;;0.00;0.00;;;;;;;-145.06;52.69;36286.50;10434160;28;20032;-68
2023/09/09 11:46:58;;;;;;;0.10;0.10;;;;;;;-145.06;53.55;36240.13;10435390;28;20108;-68
2023/09/09 11:51:59;;;;;;;0.10;0.10;;;;;;;-145.06;52.97;36187.72;10430103;28;20039;-68
2023/09/09 11:57:07;;;;;;;0.00;0.00;;;;;;;-145.06;51.89;36201.81;10425076;28;20020;-69
2023/09/09 12:02:08;;;;;;;0.10;0.10;;;;;;;-145.06;52.18;36201.81;10441315;28;20465;-68
2023/09/09 12:07:08;;;;;;;0.00;0.00;;;;;;;-145.06;50.47;36175.63;10428733;28;20041;-69
2023/09/09 12:12:09;;;;;;;0.10;0.10;;;;;;;-145.06;52.48;36219.97;10437098;28;20017;-69
2023/09/09 12:17:09;;;;;;;0.00;0.00;;;;;;;-145.06;53.27;36221.97;10412917;28;20171;-68
2023/09/09 12:22:10;;;;;;;0.10;0.10;;;;;;;-145.06;48.67;36195.78;10432530;28;20028;-68
2023/09/09 12:27:10;;;;;;;0.10;0.10;;;;;;;-145.06;49.42;36205.84;10417884;28;20044;-68
2023/09/09 12:32:11;;;;;;;0.00;0.00;;;;;;;-145.06;50.90;36207.88;10435978;28;20040;-68
2023/09/09 12:37:11;;;;;;;0.10;0.10;;;;;;;-145.06;49.15;36215.94;10441153;28;20450;-68
2023/09/09 12:42:12;;;;;;;0.03;0.03;;;;;;;-145.06;48.11;36292.56;10419647;28;20044;-68
2023/09/09 12:47:12;;;;;;;0.00;0.00;;;;;;;-145.06;45.26;36363.13;10414750;28;20013;-68
2023/09/09 12:52:12;;;;;;;0.00;0.00;;;;;;;-145.06;46.24;36419.56;10412912;28;20026;-68
2023/09/09 12:57:12;;;;;;;0.10;0.10;;;;;;;-145.06;47.49;36342.94;10386213;28;20028;-69
2023/09/09 13:02:13;;;;;;;0.10;0.10;;;;;;;-145.06;47.33;36351.00;10411968;28;20017;-67
2023/09/09 13:07:13;;;;;;;0.00;0.00;;;;;;;-145.06;48.27;36445.78;10418097;23;20325;-91
2023/09/09 13:12:14;;;;;;;0.00;0.00;;;;;;;-145.06;51.24;36367.16;10383105;28;20021;-92
2023/09/09 13:17:14;;;;;;;0.00;0.00;;;;;;;-145.06;50.51;36435.69;10430251;23;20551;-63
2023/09/09 13:22:14;;;;;;;0.10;0.10;;;;;;;-145.06;47.33;36397.38;10402430;28;20105;-64
2023/09/09 13:27:17;;;;;;;0.00;0.00;;;;;;;-145.06;45.90;36443.75;10398388;28;20566;-64
2023/09/09 13:32:18;;;;;;;0.00;0.00;;;;;;;-145.06;49.45;36482.06;10381306;28;20026;-64
2023/09/09 13:37:18;;;;;;;0.00;0.00;;;;;;;-145.06;50.18;36467.97;10391529;28;20021;-64
2023/09/09 13:42:20;;;;;;;0.00;0.00;;;;;;;-145.06;51.32;36480.06;10399821;28;20589;-64
2023/09/09 13:47:20;;;;;;;0.10;0.10;;;;;;;-145.06;49.71;36486.09;10380755;28;20106;-64
2023/09/09 13:52:20;;;;;;;0.00;0.00;;;;;;;-145.06;50.25;36566.75;10385850;28;20032;-65
2023/09/09 13:57:21;;;;;;;0.00;0.00;;;;;;;-145.06;48.48;36590.94;10388146;28;20087;-64
2023/09/09 14:02:21;;;;;;;0.00;0.00;;;;;;;-145.06;46.40;36641.34;10387943;28;20026;-64
2023/09/09 14:07:22;;;;;;;0.00;0.00;;;;;;;-145.06;49.42;36685.72;10393877;28;20305;-65
2023/09/09 14:12:22;;;;;;;0.00;0.00;;;;;;;-145.06;50.98;36663.53;10394515;28;20197;-64
2023/09/09 14:17:24;;;;;;;0.00;0.00;;;;;;;-145.06;50.32;36663.53;10390180;28;20032;-65
2023/09/09 14:22:25;;;;;;;0.10;0.10;;;;;;;-145.06;48.59;36669.59;10392685;28;20025;-65
2023/09/09 14:27:25;;;;;;;0.00;0.00;;;;;;;-145.06;49.25;36673.63;10390368;28;20020;-65
2023/09/09 14:32:25;;;;;;;0.07;0.07;;;;;;;-145.06;49.35;36699.81;10386083;28;20095;-65
2023/09/09 14:37:25;;;;;;;0.00;0.00;;;;;;;-145.06;47.15;36722.00;10384420;28;20017;-65
2023/09/09 14:42:26;;;;;;;0.10;0.10;;;;;;;-145.06;48.40;36732.09;10386663;28;20021;-65
2023/09/09 14:47:26;;;;;;;0.10;0.10;;;;;;;-145.06;47.56;36756.28;10382063;28;20083;-65
2023/09/09 14:52:27;;;;;;;0.10;0.10;;;;;;;-145.06;48.21;36812.75;10388597;28;20022;-65
2023/09/09 14:57:27;;;;;;;0.00;0.00;;;;;;;-145.06;49.24;36826.88;10377058;28;20018;-65
2023/09/09 15:02:28;;;;;;;0.10;0.10;;;;;;;-145.06;50.10;36891.38;10382576;28;20708;-65
2023/09/09 15:07:28;;;;;;;0.10;0.10;;;;;;;-145.06;51.00;36909.53;10387600;28;20021;-65
2023/09/09 15:12:28;;;;;;;0.00;0.00;;;;;;;-145.06;49.86;36959.94;10388636;28;20029;-66
2023/09/09 15:17:29;;;;;;;0.10;0.10;;;;;;;-145.06;50.63;36998.25;10387231;28;20028;-65
2023/09/09 15:22:29;;;;;;;0.00;0.00;;;;;;;-145.06;52.14;37052.72;10393882;28;20535;-66
2023/09/09 15:27:29;;;;;;;0.10;0.10;;;;;;;-145.06;52.66;37056.75;10390693;28;20264;-65
2023/09/09 15:32:29;;;;;;;0.10;0.10;;;;;;;-145.06;52.23;37093.03;10381440;28;20022;-65
2023/09/09 15:37:30;;;;;;;0.00;0.00;;;;;;;-145.06;52.76;37157.56;10387527;28;20029;-65
2023/09/09 15:42:30;;;;;;;0.00;0.00;;;;;;;-145.06;53.03;37145.47;10374830;28;20352;-65
2023/09/09 15:47:30;;;;;;;0.10;0.10;;;;;;;-145.06;54.60;37131.34;10391139;28;20013;-66
2023/09/09 15:52:31;;;;;;;0.10;0.10;;;;;;;-145.06;55.42;37147.47;10384693;28;20075;-66
2023/09/09 15:57:31;;;;;;;0.10;0.10;;;;;;;-145.06;56.22;37216.03;10384294;28;20021;-65
2023/09/09 16:02:31;;;;;;;0.00;0.00;;;;;;;-145.06;55.59;37234.19;10378469;28;20029;-66
2023/09/09 16:07:38;;;;;;;0.00;0.00;;;;;;;-145.06;55.17;37216.03;10387201;28;20344;-65
2023/09/09 16:12:38;;;;;;;0.00;0.00;;;;;;;-145.06;56.99;37272.50;10390127;28;20102;-66
2023/09/09 16:17:43;;;;;;;0.10;0.10;;;;;;;-145.06;57.61;37320.91;10384472;28;20046;-66
2023/09/09 16:22:43;;;;;;;0.00;0.00;;;;;;;-145.06;58.87;37371.34;10384167;28;20037;-66
2023/09/09 16:27:44;;;;;;;0.00;0.00;;;;;;;-145.06;59.43;37345.13;10384924;28;20075;-64
2023/09/09 16:32:44;;;;;;;0.10;0.10;;;;;;;-145.06;61.32;37363.25;10382275;28;20386;-64
2023/09/09 16:37:44;;;;;;;0.00;0.00;;;;;;;-145.06;67.62;37373.34;10389482;28;20010;-64
2023/09/09 16:42:45;;;;;;;0.00;0.00;;;;;;;-145.06;68.16;37466.13;10396552;28;20025;-65
2023/09/09 16:47:45;;;;;;;0.00;0.00;;;;;;;-145.06;66.56;37502.41;10379472;28;20018;-65
2023/09/09 16:52:45;;;;;;;0.00;0.00;;;;;;;-145.06;71.54;37514.53;10390747;28;20109;-66
2023/09/09 16:57:45;;;;;;;0.00;0.00;;;;;;;-145.06;74.17;37575.03;10385507;28;20014;-66
2023/09/09 17:02:46;;;;;;;0.00;0.00;;;;;;;-145.06;73.80;37583.09;10394318;28;20017;-66
2023/09/09 17:07:46;;;;;;;0.10;0.10;;;;;;;-145.06;72.92;37679.91;10396432;28;20100;-65
2023/09/09 17:12:46;;;;;;;0.10;0.10;;;;;;;-145.06;72.84;37716.19;10392475;28;20017;-66
2023/09/09 17:17:47;;;;;;;0.00;0.00;;;;;;;-145.06;71.65;37774.69;10384329;28;20018;-65
2023/09/09 17:22:47;;;;;;;0.00;0.00;;;;;;;-145.06;72.56;37813.00;10390488;28;20029;-66
2023/09/09 17:27:47;;;;;;;0.10;0.10;;;;;;;-145.06;73.32;37899.75;10377379;28;20017;-66
2023/09/09 17:32:54;;;;;;;0.00;0.00;;;;;;;-145.06;75.05;37948.16;10369197;28;20022;-66
2023/09/09 17:37:54;;;;;;;0.00;0.00;;;;;;;-145.06;77.66;38042.94;10390242;28;20033;-65
2023/09/09 17:42:55;;;;;;;0.10;0.10;;;;;;;-145.06;80.38;38083.28;10394210;28;20501;-66
2023/09/09 17:47:55;;;;;;;0.10;0.10;;;;;;;-145.06;81.84;38178.09;10389621;28;20075;-67
2023/09/09 17:52:55;;;;;;;0.00;0.00;;;;;;;-145.06;81.94;38250.72;10390904;28;20026;-66
2023/09/09 17:57:56;;;;;;;0.00;0.00;;;;;;;-145.06;84.28;38329.38;10388193;28;20026;-66
2023/09/09 18:02:56;;;;;;;0.00;0.00;;;;;;;-145.06;86.07;38424.19;10395963;28;20079;-67
2023/09/09 18:07:57;;;;;;;0.00;0.00;;;;;;;-145.06;86.72;38470.59;10393372;28;20017;-67
2023/09/09 18:12:57;;;;;;;0.00;0.00;;;;;;;-145.06;87.40;38470.59;10377229;28;20017;-67
2023/09/09 18:17:57;;;;;;;0.00;0.00;;;;;;;-145.06;89.12;38523.03;10406585;28;20037;-67
2023/09/09 18:22:58;;;;;;;0.10;0.10;;;;;;;-145.06;92.17;38579.50;10390101;28;20030;-64
2023/09/09 18:27:58;;;;;;;0.10;0.10;;;;;;;-145.06;93.95;38605.75;10383654;28;20021;-66
2023/09/09 18:32:58;;;;;;;0.08;0.08;;;;;;;-145.06;96.75;38698.53;10392211;28;20502;-66
2023/09/09 18:37:58;;;;;;;0.00;0.00;;;;;;;-145.06;97.95;38738.88;10384573;28;20024;-65
2023/09/09 18:43:00;;;;;;;0.00;0.00;;;;;;;-145.06;99.89;38805.47;10385212;28;20090;-65
2023/09/09 18:48:00;;;;;;;0.00;0.00;;;;;;;-145.06;100.00;38865.97;10383622;28;20018;-68
2023/09/09 18:53:00;;;;;;;0.00;0.00;;;;;;;-145.06;100.00;38849.84;10383793;28;20214;-68
2023/09/09 18:58:00;;;;;;;0.00;0.00;;;;;;;-145.06;100.00;38916.41;10387484;28;20021;-67
2023/09/09 19:03:01;;;;;;;0.00;0.00;;;;;;;-145.06;100.00;38928.53;10381860;28;20034;-68
2023/09/09 19:08:01;;;;;;;0.00;0.00;;;;;;;-145.06;100.00;38997.13;10430717;22;20057;-69
2023/09/09 19:13:02;;;;;;;0.00;0.00;;;;;;;-145.06;100.00;38999.13;10425334;28;20033;-68
2023/09/09 19:18:03;;;;;;;0.00;0.00;;;;;;;-145.06;100.00;38997.13;10414386;28;20361;-70
2023/09/09 19:23:03;;;;;;;0.00;0.00;;;;;;;-145.06;100.00;39059.66;10398137;28;20429;-70
2023/09/09 19:28:04;;;;;;;0.00;0.00;;;;;;;-145.06;100.00;39087.91;10414485;28;20022;-70
2023/09/09 19:33:06;;;;;;;0.00;0.00;;;;;;;-145.06;100.00;39150.47;10403830;28;20388;-70
2023/09/09 19:38:06;;;;;;;0.00;0.00;;;;;;;-145.06;100.00;39158.53;10395719;28;20045;-69
2023/09/09 19:43:07;;;;;;;0.00;0.00;;;;;;;-145.06;100.00;39164.56;10408297;28;20512;-69
2023/09/09 19:48:07;;;;;;;0.00;0.00;;;;;;;-145.06;100.00;39263.44;10405046;28;20017;-69
2023/09/09 19:53:09;;;;;;;0.00;0.00;;;;;;;-145.06;100.00;39233.19;10411894;28;20026;-69
2023/09/09 19:58:09;;;;;;;0.10;0.10;;;;;;;-145.06;100.00;39279.59;10443027;28;20393;-71
2023/09/09 20:03:10;;;;;;;0.00;0.00;;;;;;;-145.06;100.00;39303.78;10443252;28;20024;-68
2023/09/09 20:08:10;;;;;;;0.00;0.00;;;;;;;-145.06;100.00;39293.72;10435945;28;20027;-67
2023/09/09 20:13:10;;;;;;;0.00;0.00;;;;;;;-145.06;100.00;39309.84;10422293;28;20029;-68
2023/09/09 20:18:11;;;;;;;0.00;0.00;;;;;;;-145.06;100.00;39346.16;10408804;28;20429;-67
2023/09/09 20:23:11;;;;;;;0.00;0.00;;;;;;;-145.06;100.00;39360.28;10415333;28;20021;-67
2023/09/09 20:28:12;;;;;;;0.10;0.10;;;;;;;-145.06;100.00;39398.63;10439859;28;20335;-67
2023/09/09 20:33:14;;;;;;;0.10;0.10;;;;;;;-145.06;100.00;39400.66;10444614;28;20017;-67
2023/09/09 20:38:14;;;;;;;0.10;0.10;;;;;;;-145.06;100.00;39394.59;10420411;28;20018;-68
2023/09/09 20:43:15;;;;;;;0.10;0.10;;;;;;;-145.06;100.00;39430.91;10408154;28;20027;-67
2023/09/09 20:48:15;;;;;;;0.10;0.10;;;;;;;-145.06;100.00;39414.78;10421375;28;20028;-68
2023/09/09 20:53:16;;;;;;;0.10;0.10;;;;;;;-145.06;100.00;39422.84;10435079;28;20435;-69
2023/09/09 20:58:17;;;;;;;0.10;0.10;;;;;;;-145.06;100.00;39453.09;10421751;28;20389;-71
2023/09/09 21:03:17;;;;;;;0.10;0.10;;;;;;;-145.06;100.00;39430.91;10406286;28;20440;-69
2023/09/09 21:08:18;;;;;;;0.10;0.10;;;;;;;-145.06;100.00;39400.66;10425495;28;20071;-69
2023/09/09 21:13:21;;;;;;;0.10;0.10;;;;;;;-145.06;100.00;39378.44;10417671;28;20021;-67
2023/09/09 21:18:21;;;;;;;0.10;0.10;;;;;;;-145.06;100.00;39321.97;10426401;28;20039;-68
2023/09/09 21:23:21;;;;;;;0.00;0.00;;;;;;;-145.06;100.00;39317.91;10433645;28;20029;-69
2023/09/09 21:28:22;;;;;;;0.10;0.10;;;;;;;-145.06;100.00;39358.28;10426586;28;20029;-69
2023/09/09 21:33:22;;;;;;;0.00;0.00;;;;;;;-145.06;100.00;39366.34;10432844;28;20017;-68
2023/09/09 21:38:22;;;;;;;0.10;0.10;;;;;;;-145.06;100.00;39354.25;10420358;28;20470;-69
2023/09/09 21:43:22;;;;;;;0.00;0.00;;;;;;;-145.06;100.00;39354.25;10432814;28;20564;-68
2023/09/09 21:48:23;;;;;;;0.00;0.00;;;;;;;-145.06;100.00;39372.41;10419991;28;20017;-70
2023/09/09 21:53:24;;;;;;;0.10;0.10;;;;;;;-145.06;100.00;39366.34;10426151;28;20021;-69
2023/09/09 21:58:24;;;;;;;0.10;0.10;;;;;;;-145.06;100.00;39390.56;10427945;28;20497;-71
2023/09/09 22:03:24;;;;;;;0.10;0.10;;;;;;;-145.06;100.00;39402.66;10426202;28;20109;-67
2023/09/09 22:08:25;;;;;;;0.00;0.00;;;;;;;-145.06;100.00;39386.53;10438731;28;20018;-68
2023/09/09 22:13:25;;;;;;;0.10;0.10;;;;;;;-145.06;100.00;39380.47;10420207;28;20051;-68
2023/09/09 22:18:25;;;;;;;0.00;0.00;;;;;;;-145.06;100.00;39436.97;10431532;28;20496;-68
2023/09/09 22:23:26;;;;;;;0.10;0.10;;;;;;;-145.06;100.00;39408.72;10419563;28;20071;-68
2023/09/09 22:28:26;;;;;;;0.10;0.10;;;;;;;-145.06;100.00;39443.03;10416821;28;20025;-68
2023/09/09 22:33:26;;;;;;;0.10;0.10;;;;;;;-145.06;100.00;39426.88;10433325;28;20374;-68
2023/09/09 22:38:26;;;;;;;0.00;0.00;;;;;;;-145.06;100.00;39441.00;10446292;28;20074;-68
2023/09/09 22:43:27;;;;;;;0.00;0.00;;;;;;;-145.06;100.00;39406.69;10425709;28;20017;-70